createdAt,value
2019-02-20T00:00:57.182Z,90.28
2019-02-20T00:02:03.154Z,90.37
2019-02-20T00:03:09.154Z,89.60
2019-02-20T00:04:15.090Z,89.35
2019-02-20T00:05:21.040Z,89.57
2019-02-20T00:06:26.969Z,89.96
2019-02-20T00:07:32.968Z,90.19
2019-02-20T00:08:38.553Z,89.60
2019-02-20T00:09:44.271Z,89.47
2019-02-20T00:10:50.189Z,89.58
2019-02-20T00:11:56.127Z,89.14
2019-02-20T00:13:02.768Z,89.22
2019-02-20T00:14:09.204Z,89.68
2019-02-20T00:15:15.169Z,89.17
2019-02-20T00:16:21.046Z,89.02
2019-02-20T00:17:26.984Z,88.31
2019-02-20T00:18:32.887Z,88.13
2019-02-20T00:19:38.797Z,88.72
2019-02-20T00:20:44.739Z,89.23
2019-02-20T00:21:50.680Z,89.37
2019-02-20T00:22:56.641Z,89.56
2019-02-20T00:24:02.586Z,89.50
2019-02-20T00:25:07.827Z,89.62
2019-02-20T00:26:13.759Z,88.76
2019-02-20T00:27:19.674Z,88.92
2019-02-20T00:28:25.591Z,88.37
2019-02-20T00:29:31.510Z,88.05
2019-02-20T00:30:37.411Z,87.46
2019-02-20T00:31:43.338Z,87.32
2019-02-20T00:32:48.948Z,86.97
2019-02-20T00:33:55.088Z,87.36
2019-02-20T00:35:01.649Z,87.86
2019-02-20T00:36:07.589Z,87.95
2019-02-20T00:37:13.518Z,88.01
2019-02-20T00:38:19.473Z,88.47
2019-02-20T00:39:25.425Z,88.58
2019-02-20T00:40:31.315Z,89.00
2019-02-20T00:41:37.324Z,89.35
2019-02-20T00:42:43.270Z,89.36
2019-02-20T00:43:48.967Z,89.08
2019-02-20T00:44:57.160Z,89.53
2019-02-20T00:46:03.210Z,89.83
2019-02-20T00:47:11.286Z,90.61
2019-02-20T00:49:50.035Z,90.24
2019-02-20T00:50:56.093Z,90.21
2019-02-20T00:52:12.537Z,90.30
2019-02-20T00:53:18.307Z,89.66
2019-02-20T00:54:24.233Z,89.67
2019-02-20T00:55:30.121Z,90.29
2019-02-20T00:56:36.068Z,90.15
2019-02-20T00:57:41.994Z,90.24
2019-02-20T00:58:47.947Z,90.28
2019-02-20T00:59:53.854Z,89.81
2019-02-20T01:00:59.745Z,89.84
2019-02-20T01:02:05.322Z,90.71
2019-02-20T01:03:11.329Z,90.91
2019-02-20T01:04:17.261Z,91.38
2019-02-20T01:05:22.849Z,91.54
2019-02-20T01:06:28.760Z,91.34
2019-02-20T01:07:34.690Z,90.22
2019-02-20T01:08:40.685Z,89.96
2019-02-20T01:09:46.258Z,89.09
2019-02-20T01:10:51.486Z,88.42
2019-02-20T01:11:57.062Z,88.81
2019-02-20T01:13:03.021Z,89.58
2019-02-20T01:14:08.915Z,90.24
2019-02-20T01:15:14.481Z,89.98
2019-02-20T01:16:21.299Z,89.79
2019-02-20T01:17:28.451Z,89.64
2019-02-20T01:18:34.394Z,88.98
2019-02-20T01:19:40.351Z,89.08
2019-02-20T01:20:45.920Z,88.95
2019-02-20T01:21:51.909Z,88.95
2019-02-20T01:22:59.832Z,89.26
2019-02-20T01:24:03.850Z,88.90
2019-02-20T01:25:09.117Z,88.77
2019-02-20T01:26:15.272Z,88.50
2019-02-20T01:27:21.211Z,88.29
2019-02-20T01:28:27.151Z,88.50
2019-02-20T01:29:33.085Z,87.64
2019-02-20T01:30:38.617Z,87.34
2019-02-20T01:31:44.558Z,86.83
2019-02-20T01:32:50.467Z,86.98
2019-02-20T01:33:56.466Z,87.12
2019-02-20T01:35:02.375Z,87.36
2019-02-20T01:36:08.283Z,87.40
2019-02-20T01:37:14.218Z,87.24
2019-02-20T01:38:20.119Z,86.73
2019-02-20T01:39:26.043Z,86.30
2019-02-20T01:40:31.985Z,86.42
2019-02-20T01:41:37.886Z,86.15
2019-02-20T01:42:43.864Z,86.20
2019-02-20T01:43:49.813Z,85.80
2019-02-20T01:44:55.740Z,85.45
2019-02-20T01:46:01.728Z,85.10
2019-02-20T01:47:07.639Z,84.74
2019-02-20T01:48:13.566Z,84.62
2019-02-20T01:49:19.489Z,85.26
2019-02-20T01:50:25.415Z,85.69
2019-02-20T01:51:31.302Z,85.06
2019-02-20T01:52:36.999Z,85.59
2019-02-20T01:53:42.963Z,86.19
2019-02-20T01:54:48.855Z,86.65
2019-02-20T01:55:54.788Z,86.89
2019-02-20T01:57:00.752Z,87.40
2019-02-20T01:58:06.395Z,87.62
2019-02-20T01:59:13.353Z,87.65
2019-02-20T02:00:20.032Z,87.63
2019-02-20T02:01:25.999Z,87.86
2019-02-20T02:02:31.879Z,88.47
2019-02-20T02:03:39.045Z,88.12
2019-02-20T02:04:43.787Z,88.25
2019-02-20T02:05:49.679Z,88.75
2019-02-20T02:06:55.578Z,89.32
2019-02-20T02:08:01.491Z,89.43
2019-02-20T02:09:06.743Z,89.27
2019-02-20T02:10:12.309Z,89.80
2019-02-20T02:11:18.146Z,89.67
2019-02-20T02:12:24.019Z,89.41
2019-02-20T02:13:29.925Z,89.34
2019-02-20T02:14:35.816Z,88.46
2019-02-20T02:15:41.732Z,88.16
2019-02-20T02:16:47.687Z,87.88
2019-02-20T02:17:53.620Z,87.52
2019-02-20T02:18:59.600Z,88.17
2019-02-20T02:20:04.876Z,87.96
2019-02-20T02:21:10.755Z,88.35
2019-02-20T02:22:16.659Z,88.63
2019-02-20T02:23:22.603Z,88.42
2019-02-20T02:24:28.532Z,87.78
2019-02-20T02:25:34.516Z,87.38
2019-02-20T02:26:40.539Z,87.61
2019-02-20T02:27:47.046Z,88.46
2019-02-20T02:28:52.959Z,87.22
2019-02-20T02:29:58.895Z,87.32
2019-02-20T02:31:04.832Z,86.60
2019-02-20T02:32:10.752Z,86.85
2019-02-20T02:33:16.651Z,87.32
2019-02-20T02:34:22.604Z,86.93
2019-02-20T02:35:28.515Z,87.01
2019-02-20T02:36:34.384Z,87.58
2019-02-20T02:37:40.300Z,87.43
2019-02-20T02:38:46.256Z,87.73
2019-02-20T02:39:52.152Z,87.69
2019-02-20T02:40:58.033Z,88.00
2019-02-20T02:42:04.670Z,87.91
2019-02-20T02:43:10.659Z,88.19
2019-02-20T02:44:16.571Z,88.39
2019-02-20T02:45:22.607Z,87.33
2019-02-20T02:46:28.479Z,87.26
2019-02-20T02:47:34.382Z,87.67
2019-02-20T02:48:40.419Z,87.83
2019-02-20T02:49:46.341Z,87.21
2019-02-20T02:50:52.218Z,87.55
2019-02-20T02:51:58.136Z,87.47
2019-02-20T02:53:04.069Z,87.15
2019-02-20T02:54:09.995Z,87.45
2019-02-20T02:55:15.879Z,87.22
2019-02-20T02:56:21.769Z,87.35
2019-02-20T02:57:27.662Z,87.82
2019-02-20T02:58:33.559Z,87.61
2019-02-20T02:59:39.487Z,88.11
2019-02-20T03:00:45.437Z,88.09
2019-02-20T03:01:51.326Z,87.30
2019-02-20T03:02:57.245Z,87.80
2019-02-20T03:04:03.173Z,87.70
2019-02-20T03:05:08.424Z,88.18
2019-02-20T03:06:14.320Z,87.65
2019-02-20T03:07:19.852Z,87.75
2019-02-20T03:08:25.826Z,88.18
2019-02-20T03:09:31.737Z,88.72
2019-02-20T03:10:37.655Z,89.29
2019-02-20T03:11:43.560Z,89.83
2019-02-20T03:12:49.472Z,90.37
2019-02-20T03:13:55.386Z,90.20
2019-02-20T03:15:01.300Z,90.31
2019-02-20T03:16:07.222Z,90.75
2019-02-20T03:17:13.198Z,90.71
2019-02-20T03:18:19.138Z,90.95
2019-02-20T03:19:25.085Z,90.92
2019-02-20T03:20:31.039Z,90.93
2019-02-20T03:21:36.959Z,90.67
2019-02-20T03:22:42.864Z,90.31
2019-02-20T03:23:48.779Z,89.61
2019-02-20T03:24:54.791Z,90.20
2019-02-20T03:26:00.690Z,90.67
2019-02-20T03:27:06.594Z,91.13
2019-02-20T03:28:12.519Z,91.08
2019-02-20T03:29:18.490Z,91.38
2019-02-20T03:30:24.426Z,91.03
2019-02-20T03:31:30.313Z,90.73
2019-02-20T03:32:36.217Z,90.95
2019-02-20T03:33:42.184Z,90.98
2019-02-20T03:34:48.103Z,91.05
2019-02-20T03:35:54.050Z,90.84
2019-02-20T03:36:59.580Z,90.90
2019-02-20T03:38:04.821Z,91.45
2019-02-20T03:39:10.751Z,91.56
2019-02-20T03:40:16.686Z,91.89
2019-02-20T03:41:22.655Z,92.35
2019-02-20T03:42:28.588Z,91.93
2019-02-20T03:43:34.508Z,92.01
2019-02-20T03:44:40.442Z,91.87
2019-02-20T03:45:47.040Z,91.61
2019-02-20T03:46:52.986Z,91.43
2019-02-20T03:47:58.914Z,91.86
2019-02-20T03:49:04.529Z,92.19
2019-02-20T03:50:10.668Z,91.80
2019-02-20T03:51:16.536Z,91.82
2019-02-20T03:52:22.434Z,91.66
2019-02-20T03:53:28.408Z,90.86
2019-02-20T03:54:34.009Z,91.06
2019-02-20T03:55:39.905Z,91.69
2019-02-20T03:56:45.786Z,91.50
2019-02-20T03:57:51.917Z,90.76
2019-02-20T03:58:57.437Z,90.81
2019-02-20T04:00:02.695Z,91.77
2019-02-20T04:01:08.638Z,92.44
2019-02-20T04:02:14.577Z,92.95
2019-02-20T04:03:20.459Z,93.20
2019-02-20T04:04:26.414Z,92.89
2019-02-20T04:05:32.363Z,92.74
2019-02-20T04:06:37.902Z,93.01
2019-02-20T04:07:43.850Z,93.55
2019-02-20T04:08:49.818Z,93.44
2019-02-20T04:09:55.738Z,93.65
2019-02-20T04:11:01.668Z,93.58
2019-02-20T04:12:07.564Z,93.36
2019-02-20T04:13:13.477Z,92.01
2019-02-20T04:14:19.446Z,92.39
2019-02-20T04:15:25.373Z,92.74
2019-02-20T04:16:30.923Z,92.71
2019-02-20T04:17:36.521Z,92.76
2019-02-20T04:18:42.515Z,92.59
2019-02-20T04:19:48.426Z,93.03
2019-02-20T04:20:54.399Z,93.35
2019-02-20T04:22:00.353Z,92.99
2019-02-20T04:23:06.321Z,93.23
2019-02-20T04:24:12.230Z,92.33
2019-02-20T04:25:18.160Z,91.63
2019-02-20T04:26:24.130Z,91.46
2019-02-20T04:27:30.080Z,91.01
2019-02-20T04:28:36.052Z,91.36
2019-02-20T04:29:42.178Z,91.87
2019-02-20T04:30:48.129Z,91.20
2019-02-20T04:31:54.058Z,91.32
2019-02-20T04:33:00.026Z,90.96
2019-02-20T04:34:05.922Z,90.91
2019-02-20T04:35:11.488Z,90.62
2019-02-20T04:36:17.411Z,91.51
2019-02-20T04:37:23.292Z,91.67
2019-02-20T04:38:29.215Z,92.17
2019-02-20T04:39:35.143Z,92.37
2019-02-20T04:40:41.082Z,92.44
2019-02-20T04:41:47.022Z,92.51
2019-02-20T04:42:52.994Z,91.61
2019-02-20T04:43:58.925Z,91.38
2019-02-20T04:45:04.192Z,92.09
2019-02-20T04:46:10.115Z,92.28
2019-02-20T04:47:16.104Z,92.07
2019-02-20T04:48:22.036Z,92.16
2019-02-20T04:49:27.973Z,91.99
2019-02-20T04:50:33.928Z,91.87
2019-02-20T04:51:39.817Z,91.96
2019-02-20T04:52:45.755Z,91.17
2019-02-20T04:53:51.713Z,91.38
2019-02-20T04:54:57.622Z,92.15
2019-02-20T04:56:03.559Z,91.90
2019-02-20T04:57:09.478Z,92.78
2019-02-20T04:58:16.605Z,91.92
2019-02-20T04:59:22.601Z,92.05
2019-02-20T05:00:28.527Z,92.36
2019-02-20T05:01:34.462Z,92.51
2019-02-20T05:02:40.361Z,92.52
2019-02-20T05:03:46.293Z,92.72
2019-02-20T05:04:51.811Z,92.71
2019-02-20T05:05:57.744Z,92.63
2019-02-20T05:07:03.690Z,92.96
2019-02-20T05:08:09.355Z,93.32
2019-02-20T05:09:15.339Z,93.68
2019-02-20T05:10:21.316Z,92.71
2019-02-20T05:11:28.133Z,92.25
2019-02-20T05:12:34.604Z,91.36
2019-02-20T05:13:40.563Z,92.22
2019-02-20T05:14:46.484Z,92.98
2019-02-20T05:15:52.395Z,92.41
2019-02-20T05:16:58.385Z,92.27
2019-02-20T05:18:03.916Z,92.75
2019-02-20T05:19:09.926Z,92.74
2019-02-20T05:20:15.883Z,93.46
2019-02-20T05:21:23.086Z,94.03
2019-02-20T05:22:29.012Z,94.25
2019-02-20T05:23:35.060Z,94.43
2019-02-20T05:24:41.019Z,94.44
2019-02-20T05:25:46.930Z,94.42
2019-02-20T05:26:52.982Z,93.44
2019-02-20T05:27:58.980Z,93.12
2019-02-20T05:29:04.903Z,93.17
2019-02-20T05:30:10.195Z,93.46
2019-02-20T05:31:16.668Z,92.58
2019-02-20T05:32:22.773Z,92.64
2019-02-20T05:33:29.303Z,91.81
2019-02-20T05:34:35.201Z,91.69
2019-02-20T05:35:41.107Z,91.82
2019-02-20T05:36:47.062Z,91.83
2019-02-20T05:37:52.644Z,91.55
2019-02-20T05:38:58.620Z,90.96
2019-02-20T05:40:04.134Z,91.52
2019-02-20T05:41:10.033Z,92.11
2019-02-20T05:42:15.941Z,91.80
2019-02-20T05:43:21.902Z,90.92
2019-02-20T05:44:27.814Z,90.94
2019-02-20T05:45:33.738Z,91.50
2019-02-20T05:46:39.701Z,91.49
2019-02-20T05:47:45.642Z,91.25
2019-02-20T05:48:51.565Z,91.43
2019-02-20T05:49:57.439Z,91.55
2019-02-20T05:51:03.367Z,91.51
2019-02-20T05:52:09.345Z,90.85
2019-02-20T05:53:15.260Z,91.04
2019-02-20T05:54:34.021Z,91.83
2019-02-20T05:55:33.918Z,92.09
2019-02-20T05:56:39.859Z,92.02
2019-02-20T05:57:45.898Z,92.52
2019-02-20T05:58:51.822Z,92.87
2019-02-20T05:59:57.699Z,92.30
2019-02-20T06:01:03.670Z,92.35
2019-02-20T06:02:10.044Z,92.23
2019-02-20T06:03:17.204Z,91.72
2019-02-20T06:04:23.149Z,90.66
2019-02-20T06:05:29.098Z,90.52
2019-02-20T06:06:35.027Z,90.42
2019-02-20T06:07:40.904Z,90.90
2019-02-20T06:08:46.863Z,91.26
2019-02-20T06:09:52.746Z,91.85
2019-02-20T06:10:58.637Z,90.80
2019-02-20T06:12:04.232Z,90.10
2019-02-20T06:13:10.131Z,90.96
2019-02-20T06:14:17.021Z,90.33
2019-02-20T06:15:22.932Z,90.77
2019-02-20T06:16:29.222Z,91.21
2019-02-20T06:17:35.130Z,92.21
2019-02-20T06:18:41.053Z,92.93
2019-02-20T06:19:46.982Z,93.12
2019-02-20T06:20:52.863Z,92.92
2019-02-20T06:21:58.766Z,92.87
2019-02-20T06:23:04.717Z,92.54
2019-02-20T06:24:10.628Z,92.83
2019-02-20T06:25:16.534Z,92.80
2019-02-20T06:26:22.509Z,92.35
2019-02-20T06:27:28.441Z,91.93
2019-02-20T06:28:34.317Z,92.18
2019-02-20T06:29:40.221Z,93.04
2019-02-20T06:30:46.135Z,93.50
2019-02-20T06:31:52.055Z,92.76
2019-02-20T06:32:58.081Z,91.59
2019-02-20T06:34:04.048Z,91.39
2019-02-20T06:35:09.577Z,91.83
2019-02-20T06:36:16.175Z,92.83
2019-02-20T06:37:22.569Z,93.18
2019-02-20T06:38:28.464Z,92.32
2019-02-20T06:39:34.376Z,91.20
2019-02-20T06:40:40.308Z,91.66
2019-02-20T06:41:46.207Z,91.90
2019-02-20T06:42:52.112Z,91.43
2019-02-20T06:43:58.048Z,90.94
2019-02-20T06:45:03.276Z,91.38
2019-02-20T06:46:09.215Z,90.82
2019-02-20T06:47:15.156Z,90.29
2019-02-20T06:48:21.088Z,90.51
2019-02-20T06:49:27.050Z,91.26
2019-02-20T06:50:32.938Z,91.07
2019-02-20T06:51:38.906Z,91.62
2019-02-20T06:52:44.823Z,92.08
2019-02-20T06:53:53.107Z,92.10
2019-02-20T06:54:59.033Z,91.96
2019-02-20T06:56:04.985Z,91.34
2019-02-20T06:57:11.215Z,90.45
2019-02-20T06:58:17.952Z,90.57
2019-02-20T06:59:23.914Z,91.11
2019-02-20T07:00:29.824Z,91.44
2019-02-20T07:01:35.723Z,91.53
2019-02-20T07:02:41.588Z,91.38
2019-02-20T07:03:54.123Z,91.18
2019-02-20T07:05:11.100Z,91.05
2019-02-20T07:08:08.021Z,90.67
2019-02-20T07:09:18.832Z,90.57
2019-02-20T07:10:25.640Z,90.44
2019-02-20T07:11:39.702Z,91.51
2019-02-20T07:12:45.719Z,91.72
2019-02-20T07:14:06.539Z,91.28
2019-02-20T07:15:19.288Z,90.59
2019-02-20T07:16:42.865Z,90.40
2019-02-20T07:17:57.568Z,89.97
2019-02-20T07:19:05.192Z,90.22
2019-02-20T07:20:45.733Z,90.42
2019-02-20T07:21:55.694Z,90.29
2019-02-20T07:23:05.463Z,90.73
2019-02-20T07:24:26.903Z,91.14
2019-02-20T07:25:36.476Z,90.49
2019-02-20T07:26:45.652Z,90.40
2019-02-20T07:28:10.840Z,89.81
2019-02-20T07:29:31.706Z,89.78
2019-02-20T07:30:37.271Z,90.13
2019-02-20T07:31:43.232Z,90.31
2019-02-20T07:32:49.352Z,90.14
2019-02-20T07:33:55.353Z,90.42
2019-02-20T07:35:01.250Z,89.87
2019-02-20T07:36:07.194Z,89.26
2019-02-20T07:37:13.126Z,88.99
2019-02-20T07:38:20.251Z,88.53
2019-02-20T07:39:26.154Z,88.28
2019-02-20T07:40:32.072Z,88.68
2019-02-20T07:41:38.006Z,88.53
2019-02-20T07:42:43.664Z,88.02
2019-02-20T07:43:49.632Z,88.10
2019-02-20T07:44:55.602Z,88.79
2019-02-20T07:46:01.509Z,88.46
2019-02-20T07:47:07.428Z,88.56
2019-02-20T07:48:13.384Z,88.45
2019-02-20T07:49:19.323Z,88.42
2019-02-20T07:50:25.255Z,88.13
2019-02-20T07:51:32.447Z,87.95
2019-02-20T07:52:38.398Z,88.11
2019-02-20T07:53:44.331Z,88.46
2019-02-20T07:54:50.258Z,88.45
2019-02-20T07:55:56.194Z,89.22
2019-02-20T07:57:02.095Z,89.11
2019-02-20T07:58:07.992Z,88.83
2019-02-20T07:59:13.953Z,88.61
2019-02-20T08:00:19.978Z,88.41
2019-02-20T08:01:29.635Z,87.84
2019-02-20T08:02:35.544Z,88.18
2019-02-20T08:03:41.461Z,87.95
2019-02-20T08:04:46.993Z,87.62
2019-02-20T08:05:52.909Z,87.80
2019-02-20T08:06:58.822Z,87.78
2019-02-20T08:08:04.741Z,87.00
2019-02-20T08:09:10.672Z,87.00
2019-02-20T08:10:16.547Z,87.20
2019-02-20T08:11:22.431Z,87.33
2019-02-20T08:12:28.406Z,87.52
2019-02-20T08:13:39.285Z,86.89
2019-02-20T08:14:40.259Z,86.00
2019-02-20T08:15:46.138Z,85.78
2019-02-20T08:16:52.890Z,87.26
2019-02-20T08:17:58.019Z,86.44
2019-02-20T08:19:03.953Z,86.33
2019-02-20T08:20:09.174Z,86.08
2019-02-20T08:21:15.085Z,85.65
2019-02-20T08:22:20.950Z,85.95
2019-02-20T08:23:26.884Z,85.21
2019-02-20T08:24:32.817Z,85.25
2019-02-20T08:25:38.748Z,85.33
2019-02-20T08:26:44.658Z,85.51
2019-02-20T08:27:50.541Z,84.85
2019-02-20T08:28:56.467Z,84.92
2019-02-20T08:30:02.363Z,84.58
2019-02-20T08:31:08.255Z,86.07
2019-02-20T08:32:14.152Z,86.14
2019-02-20T08:33:20.064Z,86.33
2019-02-20T08:34:25.998Z,86.15
2019-02-20T08:35:31.891Z,86.31
2019-02-20T08:36:37.823Z,85.61
2019-02-20T08:37:43.751Z,84.99
2019-02-20T08:38:49.713Z,85.00
2019-02-20T08:39:55.677Z,84.65
2019-02-20T08:41:01.568Z,84.42
2019-02-20T08:42:07.531Z,83.83
2019-02-20T08:43:14.002Z,83.65
2019-02-20T08:44:20.076Z,83.09
2019-02-20T08:45:25.968Z,82.84
2019-02-20T08:46:31.862Z,82.78
2019-02-20T08:47:37.779Z,82.98
2019-02-20T08:48:43.840Z,82.98
2019-02-20T08:49:49.796Z,82.68
2019-02-20T08:50:55.717Z,83.21
2019-02-20T08:52:01.599Z,83.61
2019-02-20T08:53:09.470Z,84.45
2019-02-20T08:54:15.416Z,84.47
2019-02-20T08:55:21.312Z,83.99
2019-02-20T08:56:27.230Z,83.59
2019-02-20T08:57:33.116Z,82.70
2019-02-20T08:58:39.075Z,82.13
2019-02-20T08:59:44.996Z,81.84
2019-02-20T09:00:50.538Z,81.74
2019-02-20T09:01:56.443Z,81.80
2019-02-20T09:03:02.351Z,82.17
2019-02-20T09:04:08.783Z,82.07
2019-02-20T09:05:14.907Z,81.05
2019-02-20T09:06:20.480Z,80.18
2019-02-20T09:07:26.392Z,80.04
2019-02-20T09:08:33.153Z,80.61
2019-02-20T09:09:39.135Z,80.29
2019-02-20T09:10:45.052Z,79.87
2019-02-20T09:11:50.969Z,80.21
2019-02-20T09:12:56.873Z,81.00
2019-02-20T09:14:02.811Z,80.55
2019-02-20T09:15:08.038Z,80.74
2019-02-20T09:16:13.911Z,79.77
2019-02-20T09:17:19.826Z,78.45
2019-02-20T09:18:25.727Z,78.29
2019-02-20T09:19:31.622Z,77.25
2019-02-20T09:20:37.553Z,77.69
2019-02-20T09:21:43.453Z,78.15
2019-02-20T09:22:49.334Z,77.57
2019-02-20T09:23:55.261Z,77.50
2019-02-20T09:25:01.974Z,76.84
2019-02-20T09:26:08.007Z,76.88
2019-02-20T09:27:13.931Z,76.04
2019-02-20T09:28:19.843Z,76.01
2019-02-20T09:29:26.257Z,75.62
2019-02-20T09:30:32.196Z,76.18
2019-02-20T09:31:38.130Z,76.14
2019-02-20T09:32:44.053Z,76.13
2019-02-20T09:33:49.961Z,77.35
2019-02-20T09:34:55.869Z,76.35
2019-02-20T09:36:01.821Z,76.89
2019-02-20T09:37:07.752Z,76.73
2019-02-20T09:38:13.676Z,75.37
2019-02-20T09:39:32.712Z,75.64
2019-02-20T09:40:38.582Z,75.61
2019-02-20T09:41:44.499Z,74.58
2019-02-20T09:42:49.677Z,75.94
2019-02-20T09:43:55.606Z,76.30
2019-02-20T09:45:01.519Z,76.82
2019-02-20T09:46:07.870Z,75.78
2019-02-20T09:47:14.277Z,75.57
2019-02-20T09:48:20.214Z,76.19
2019-02-20T09:49:26.160Z,75.80
2019-02-20T09:50:32.099Z,75.20
2019-02-20T09:51:37.987Z,74.65
2019-02-20T09:52:51.886Z,74.67
2019-02-20T09:53:49.466Z,74.81
2019-02-20T09:54:55.433Z,74.45
2019-02-20T09:56:01.406Z,74.13
2019-02-20T09:57:07.285Z,74.48
2019-02-20T09:58:13.224Z,74.21
2019-02-20T09:59:19.185Z,74.33
2019-02-20T10:00:25.122Z,73.43
2019-02-20T10:01:32.153Z,73.46
2019-02-20T10:02:37.065Z,73.18
2019-02-20T10:03:42.973Z,73.32
2019-02-20T10:04:48.961Z,73.13
2019-02-20T10:05:54.980Z,72.52
2019-02-20T10:07:01.788Z,72.95
2019-02-20T10:08:08.105Z,72.98
2019-02-20T10:09:14.094Z,72.04
2019-02-20T10:10:20.271Z,72.14
2019-02-20T10:11:26.808Z,72.69
2019-02-20T10:12:33.381Z,73.17
2019-02-20T10:13:39.594Z,72.29
2019-02-20T10:14:45.521Z,71.96
2019-02-20T10:15:51.428Z,71.39
2019-02-20T10:16:56.963Z,72.06
2019-02-20T10:18:02.883Z,72.00
2019-02-20T10:19:08.949Z,72.56
2019-02-20T10:20:14.550Z,73.23
2019-02-20T10:21:20.563Z,72.43
2019-02-20T10:22:26.540Z,71.56
2019-02-20T10:23:32.483Z,71.73
2019-02-20T10:24:38.441Z,73.15
2019-02-20T10:25:44.324Z,72.42
2019-02-20T10:26:50.252Z,72.79
2019-02-20T10:27:56.167Z,73.25
2019-02-20T10:29:02.305Z,72.48
2019-02-20T10:30:07.582Z,72.42
2019-02-20T10:31:13.521Z,72.01
2019-02-20T10:32:19.434Z,71.44
2019-02-20T10:33:25.442Z,72.61
2019-02-20T10:34:31.342Z,71.70
2019-02-20T10:35:37.268Z,71.21
2019-02-20T10:36:43.258Z,71.15
2019-02-20T10:37:49.170Z,71.89
2019-02-20T10:38:55.077Z,71.57
2019-02-20T10:40:01.019Z,72.93
2019-02-20T10:41:07.035Z,71.97
2019-02-20T10:42:12.938Z,72.20
2019-02-20T10:43:18.824Z,70.56
2019-02-20T10:44:24.720Z,69.13
2019-02-20T10:45:30.731Z,69.88
2019-02-20T10:46:36.801Z,69.66
2019-02-20T10:47:42.894Z,68.56
2019-02-20T10:48:49.068Z,68.89
2019-02-20T10:49:55.914Z,68.57
2019-02-20T10:51:02.307Z,68.88
2019-02-20T10:52:08.533Z,69.06
2019-02-20T10:53:14.834Z,68.93
2019-02-20T10:54:20.878Z,68.88
2019-02-20T10:55:26.832Z,68.47
2019-02-20T10:56:32.417Z,68.41
2019-02-20T10:57:37.989Z,68.27
2019-02-20T10:58:44.012Z,68.21
2019-02-20T10:59:49.903Z,68.12
2019-02-20T11:00:55.851Z,67.35
2019-02-20T11:02:01.754Z,67.38
2019-02-20T11:03:07.674Z,66.82
2019-02-20T11:04:13.284Z,66.50
2019-02-20T11:05:18.852Z,66.42
2019-02-20T11:06:24.762Z,67.66
2019-02-20T11:07:30.691Z,66.42
2019-02-20T11:08:36.589Z,66.21
2019-02-20T11:09:42.163Z,65.90
2019-02-20T11:10:48.090Z,66.86
2019-02-20T11:11:54.531Z,67.08
2019-02-20T11:13:00.047Z,67.37
2019-02-20T11:14:05.257Z,66.05
2019-02-20T11:15:10.622Z,65.75
2019-02-20T11:16:16.558Z,65.68
2019-02-20T11:17:22.539Z,66.00
2019-02-20T11:18:28.447Z,65.50
2019-02-20T11:19:34.387Z,66.89
2019-02-20T11:20:48.306Z,68.64
2019-02-20T11:21:46.998Z,66.55
2019-02-20T11:22:52.871Z,66.30
2019-02-20T11:23:58.838Z,65.79
2019-02-20T11:25:04.061Z,65.35
2019-02-20T11:26:17.620Z,65.55
2019-02-20T11:27:15.948Z,65.00
2019-02-20T11:28:26.964Z,64.95
2019-02-20T11:29:27.923Z,64.98
2019-02-20T11:30:33.889Z,65.39
2019-02-20T11:31:40.236Z,65.48
2019-02-20T11:32:46.683Z,65.17
2019-02-20T11:33:52.629Z,65.64
2019-02-20T11:34:58.515Z,65.42
2019-02-20T11:36:04.100Z,64.95
2019-02-20T11:37:10.055Z,65.25
2019-02-20T11:38:16.002Z,64.67
2019-02-20T11:39:21.916Z,64.35
2019-02-20T11:40:27.843Z,64.58
2019-02-20T11:41:33.772Z,64.07
2019-02-20T11:42:39.669Z,65.04
2019-02-20T11:43:45.595Z,64.15
2019-02-20T11:44:51.493Z,63.56
2019-02-20T11:45:57.463Z,62.96
2019-02-20T11:47:03.492Z,62.26
2019-02-20T11:48:09.368Z,62.44
2019-02-20T11:49:15.270Z,62.51
2019-02-20T11:50:21.186Z,62.50
2019-02-20T11:51:27.322Z,63.21
2019-02-20T11:52:38.439Z,63.10
2019-02-20T11:53:39.171Z,62.22
2019-02-20T11:54:45.125Z,61.84
2019-02-20T11:55:51.102Z,61.71
2019-02-20T11:56:57.008Z,61.89
2019-02-20T11:58:02.953Z,62.28
2019-02-20T11:59:08.929Z,64.08
2019-02-20T12:00:15.882Z,63.41
2019-02-20T12:01:21.852Z,62.21
2019-02-20T12:02:27.820Z,62.98
2019-02-20T12:03:33.757Z,63.02
2019-02-20T12:04:39.667Z,62.15
2019-02-20T12:05:45.654Z,62.59
2019-02-20T12:06:51.616Z,62.74
2019-02-20T12:07:57.557Z,63.70
2019-02-20T12:09:03.194Z,63.47
2019-02-20T12:10:08.794Z,63.18
2019-02-20T12:11:14.461Z,61.95
2019-02-20T12:12:20.390Z,61.70
2019-02-20T12:13:26.468Z,61.50
2019-02-20T12:14:32.984Z,62.61
2019-02-20T12:15:38.898Z,61.56
2019-02-20T12:16:44.817Z,61.79
2019-02-20T12:17:50.396Z,61.41
2019-02-20T12:18:56.321Z,61.22
2019-02-20T12:20:02.442Z,61.49
2019-02-20T12:21:08.356Z,62.92
2019-02-20T12:22:14.310Z,62.57
2019-02-20T12:23:20.206Z,62.80
2019-02-20T12:24:26.162Z,62.47
2019-02-20T12:25:31.735Z,62.88
2019-02-20T12:26:37.680Z,61.47
2019-02-20T12:27:43.609Z,61.37
2019-02-20T12:28:49.486Z,60.76
2019-02-20T12:29:55.403Z,60.62
2019-02-20T12:31:01.448Z,60.36
2019-02-20T12:32:07.108Z,60.90
2019-02-20T12:33:13.013Z,60.81
2019-02-20T12:34:18.951Z,61.44
2019-02-20T12:35:24.881Z,60.99
2019-02-20T12:36:30.819Z,60.77
2019-02-20T12:37:36.727Z,60.03
2019-02-20T12:38:42.664Z,59.94
2019-02-20T12:39:48.576Z,60.25
2019-02-20T12:40:54.571Z,61.51
2019-02-20T12:42:00.655Z,61.47
2019-02-20T12:43:06.589Z,60.82
2019-02-20T12:44:12.610Z,60.08
2019-02-20T12:45:18.549Z,60.51
2019-02-20T12:46:24.506Z,60.14
2019-02-20T12:47:30.404Z,59.20
2019-02-20T12:48:36.320Z,58.64
2019-02-20T12:49:42.258Z,59.43
2019-02-20T12:50:49.103Z,59.22
2019-02-20T12:51:55.079Z,59.16
2019-02-20T12:53:01.040Z,59.90
2019-02-20T12:54:06.967Z,59.35
2019-02-20T12:55:12.380Z,58.63
2019-02-20T12:56:21.748Z,58.27
2019-02-20T12:57:27.397Z,58.85
2019-02-20T12:58:33.323Z,58.73
2019-02-20T12:59:38.907Z,57.67
2019-02-20T13:00:44.855Z,57.95
2019-02-20T13:01:50.794Z,58.30
2019-02-20T13:02:56.748Z,57.90
2019-02-20T13:04:02.711Z,57.59
2019-02-20T13:05:07.981Z,57.58
2019-02-20T13:06:13.927Z,57.33
2019-02-20T13:07:19.480Z,56.61
2019-02-20T13:08:25.460Z,56.68
2019-02-20T13:09:30.795Z,57.21
2019-02-20T13:10:36.864Z,56.69
2019-02-20T13:11:42.763Z,57.88
2019-02-20T13:12:48.702Z,58.24
2019-02-20T13:13:54.611Z,58.14
2019-02-20T13:15:00.542Z,58.65
2019-02-20T13:16:09.571Z,58.69
2019-02-20T13:17:12.410Z,58.91
2019-02-20T13:18:18.439Z,58.94
2019-02-20T13:19:24.265Z,58.47
2019-02-20T13:20:30.206Z,58.45
2019-02-20T13:21:36.150Z,58.55
2019-02-20T13:22:42.164Z,59.39
2019-02-20T13:23:48.228Z,58.61
2019-02-20T13:24:54.258Z,59.24
2019-02-20T13:26:00.258Z,58.58
2019-02-20T13:27:08.577Z,58.95
2019-02-20T13:28:12.344Z,58.89
2019-02-20T13:29:18.357Z,58.78
2019-02-20T13:30:24.489Z,58.72
2019-02-20T13:31:30.468Z,58.36
2019-02-20T13:32:36.453Z,58.78
2019-02-20T13:33:42.326Z,57.93
2019-02-20T13:34:48.303Z,57.25
2019-02-20T13:35:54.352Z,56.34
2019-02-20T13:37:00.464Z,56.80
2019-02-20T13:38:08.376Z,57.30
2019-02-20T13:39:14.401Z,56.71
2019-02-20T13:40:20.008Z,56.88
2019-02-20T13:41:25.939Z,57.22
2019-02-20T13:42:32.148Z,57.44
2019-02-20T13:43:37.960Z,57.70
2019-02-20T13:44:43.875Z,57.45
2019-02-20T13:45:49.885Z,57.44
2019-02-20T13:46:55.890Z,57.04
2019-02-20T13:48:01.827Z,56.83
2019-02-20T13:49:07.539Z,57.33
2019-02-20T13:50:13.028Z,58.45
2019-02-20T13:51:19.027Z,58.30
2019-02-20T13:52:24.762Z,57.51
2019-02-20T13:53:30.663Z,56.70
2019-02-20T13:54:36.631Z,54.99
2019-02-20T13:55:42.320Z,54.43
2019-02-20T13:56:48.465Z,54.31
2019-02-20T13:57:53.831Z,53.71
2019-02-20T13:58:59.478Z,53.54
2019-02-20T14:00:04.902Z,53.09
2019-02-20T14:01:10.564Z,53.23
2019-02-20T14:02:16.484Z,52.99
2019-02-20T14:03:22.075Z,52.26
2019-02-20T14:04:27.974Z,50.95
2019-02-20T14:05:34.027Z,51.52
2019-02-20T14:06:40.029Z,52.59
2019-02-20T14:07:45.989Z,52.32
2019-02-20T14:08:51.895Z,52.60
2019-02-20T14:09:58.240Z,53.38
2019-02-20T14:11:05.160Z,52.92
2019-02-20T14:12:11.398Z,51.95
2019-02-20T14:13:17.477Z,51.92
2019-02-20T14:14:23.509Z,52.82
2019-02-20T14:15:29.660Z,52.29
2019-02-20T14:16:35.657Z,52.86